sensor_id;sensor_type;location;lat;lon;timestamp;pressure;altitude;pressure_sealevel;temperature;humidity
70200;BME280;57587;55.688;37.600;2023-03-19T00:00:31;100876.34;;;-0.70;39.51
70200;BME280;57587;55.688;37.600;2023-03-19T00:02:58;100879.91;;;-0.71;39.56
70200;BME280;57587;55.688;37.600;2023-03-19T00:05:25;100874.31;;;-0.64;39.60
70200;BME280;57587;55.688;37.600;2023-03-19T00:07:53;100882.13;;;-0.63;39.98
70200;BME280;57587;55.688;37.600;2023-03-19T00:10:20;100877.63;;;-0.61;39.60
70200;BME280;57587;55.688;37.600;2023-03-19T00:12:47;100868.97;;;-0.63;39.83
70200;BME280;57587;55.688;37.600;2023-03-19T00:15:14;100863.66;;;-0.61;39.69
70200;BME280;57587;55.688;37.600;2023-03-19T00:17:42;100858.34;;;-0.77;39.92
70200;BME280;57587;55.688;37.600;2023-03-19T00:20:11;100862.03;;;-0.81;40.36
70200;BME280;57587;55.688;37.600;2023-03-19T00:22:38;100858.34;;;-0.77;40.15
70200;BME280;57587;55.688;37.600;2023-03-19T00:25:07;100862.72;;;-0.78;39.86
70200;BME280;57587;55.688;37.600;2023-03-19T00:27:36;100849.16;;;-0.86;40.31
70200;BME280;57587;55.688;37.600;2023-03-19T00:30:05;100852.78;;;-0.88;40.51
70200;BME280;57587;55.688;37.600;2023-03-19T00:32:33;100855.19;;;-1.01;40.90
70200;BME280;57587;55.688;37.600;2023-03-19T00:35:02;100855.03;;;-0.98;40.93
70200;BME280;57587;55.688;37.600;2023-03-19T00:37:29;100848.31;;;-1.04;40.76
70200;BME280;57587;55.688;37.600;2023-03-19T00:39:57;100843.75;;;-1.00;40.79
70200;BME280;57587;55.688;37.600;2023-03-19T00:42:24;100839.34;;;-1.00;41.09
70200;BME280;57587;55.688;37.600;2023-03-19T00:44:51;100842.59;;;-1.12;41.26
70200;BME280;57587;55.688;37.600;2023-03-19T00:47:19;100845.22;;;-1.12;41.49
70200;BME280;57587;55.688;37.600;2023-03-19T00:49:46;100844.00;;;-1.05;41.26
70200;BME280;57587;55.688;37.600;2023-03-19T00:52:13;100838.75;;;-1.05;41.24
70200;BME280;57587;55.688;37.600;2023-03-19T00:54:41;100839.66;;;-1.06;41.32
70200;BME280;57587;55.688;37.600;2023-03-19T00:57:08;100837.34;;;-1.12;41.39
70200;BME280;57587;55.688;37.600;2023-03-19T00:59:35;100837.34;;;-1.12;41.33
70200;BME280;57587;55.688;37.600;2023-03-19T01:02:02;100835.81;;;-1.16;41.44
70200;BME280;57587;55.688;37.600;2023-03-19T01:04:30;100831.25;;;-1.12;41.50
70200;BME280;57587;55.688;37.600;2023-03-19T01:06:58;100832.09;;;-1.12;41.49
70200;BME280;57587;55.688;37.600;2023-03-19T01:09:25;100827.94;;;-1.16;41.67
70200;BME280;57587;55.688;37.600;2023-03-19T01:11:52;100827.00;;;-1.15;41.69
70200;BME280;57587;55.688;37.600;2023-03-19T01:14:20;100831.03;;;-1.08;41.86
70200;BME280;57587;55.688;37.600;2023-03-19T01:16:47;100821.31;;;-1.23;42.11
70200;BME280;57587;55.688;37.600;2023-03-19T01:19:14;100820.38;;;-1.22;42.12
70200;BME280;57587;55.688;37.600;2023-03-19T01:21:42;100827.16;;;-1.18;42.06
70200;BME280;57587;55.688;37.600;2023-03-19T01:24:16;100822.69;;;-1.16;42.21
70200;BME280;57587;55.688;37.600;2023-03-19T01:26:47;100823.47;;;-1.14;41.98
70200;BME280;57587;55.688;37.600;2023-03-19T01:29:31;100813.53;;;-1.09;42.06
70200;BME280;57587;55.688;37.600;2023-03-19T01:32:07;100823.63;;;-1.17;42.13
70200;BME280;57587;55.688;37.600;2023-03-19T01:34:34;100821.59;;;-1.12;42.23
70200;BME280;57587;55.688;37.600;2023-03-19T01:37:08;100824.94;;;-1.08;42.10
70200;BME280;57587;55.688;37.600;2023-03-19T01:39:36;100820.22;;;-1.02;41.97
70200;BME280;57587;55.688;37.600;2023-03-19T01:42:06;100818.75;;;-1.07;42.45
70200;BME280;57587;55.688;37.600;2023-03-19T01:44:53;100819.28;;;-1.01;42.27
70200;BME280;57587;55.688;37.600;2023-03-19T01:47:38;100812.16;;;-0.99;42.17
70200;BME280;57587;55.688;37.600;2023-03-19T01:50:22;100815.53;;;-0.97;42.44
70200;BME280;57587;55.688;37.600;2023-03-19T01:53:01;100808.44;;;-0.95;42.28
70200;BME280;57587;55.688;37.600;2023-03-19T01:55:42;100813.53;;;-0.91;42.70
70200;BME280;57587;55.688;37.600;2023-03-19T01:58:16;100820.31;;;-0.87;42.71
70200;BME280;57587;55.688;37.600;2023-03-19T02:01:03;100808.97;;;-0.88;42.49
70200;BME280;57587;55.688;37.600;2023-03-19T02:03:32;100808.97;;;-0.88;42.30
70200;BME280;57587;55.688;37.600;2023-03-19T02:06:12;100803.88;;;-0.91;42.74
70200;BME280;57587;55.688;37.600;2023-03-19T02:08:40;100798.78;;;-0.94;41.78
70200;BME280;57587;55.688;37.600;2023-03-19T02:11:08;100790.84;;;-0.93;42.27
70200;BME280;57587;55.688;37.600;2023-03-19T02:13:35;100785.81;;;-0.97;42.29
70200;BME280;57587;55.688;37.600;2023-03-19T02:16:03;100786.91;;;-1.01;42.41
70200;BME280;57587;55.688;37.600;2023-03-19T02:18:31;100786.81;;;-1.00;42.25
70200;BME280;57587;55.688;37.600;2023-03-19T02:23:40;100782.13;;;-1.10;42.55
70200;BME280;57587;55.688;37.600;2023-03-19T02:26:16;100785.84;;;-1.14;42.84
70200;BME280;57587;55.688;37.600;2023-03-19T02:28:48;100787.69;;;-1.17;42.70
70200;BME280;57587;55.688;37.600;2023-03-19T02:31:22;100778.50;;;-1.25;42.75
70200;BME280;57587;55.688;37.600;2023-03-19T02:36:49;100787.78;;;-1.35;43.05
70200;BME280;57587;55.688;37.600;2023-03-19T02:42:27;100776.75;;;-1.42;43.21
70200;BME280;57587;55.688;37.600;2023-03-19T02:44:56;100779.97;;;-1.37;43.40
70200;BME280;57587;55.688;37.600;2023-03-19T02:47:24;100775.03;;;-1.43;43.26
70200;BME280;57587;55.688;37.600;2023-03-19T02:49:52;100776.19;;;-1.49;43.86
70200;BME280;57587;55.688;37.600;2023-03-19T02:52:19;100761.16;;;-1.63;43.91
70200;BME280;57587;55.688;37.600;2023-03-19T02:54:46;100778.22;;;-1.54;43.36
70200;BME280;57587;55.688;37.600;2023-03-19T02:57:14;100772.66;;;-1.65;43.71
70200;BME280;57587;55.688;37.600;2023-03-19T02:59:41;100768.41;;;-1.68;44.23
70200;BME280;57587;55.688;37.600;2023-03-19T03:02:09;100765.63;;;-1.65;44.17
70200;BME280;57587;55.688;37.600;2023-03-19T03:04:36;100765.47;;;-1.62;43.98
70200;BME280;57587;55.688;37.600;2023-03-19T03:07:04;100762.16;;;-1.65;44.24
70200;BME280;57587;55.688;37.600;2023-03-19T03:09:32;100762.16;;;-1.65;44.34
70200;BME280;57587;55.688;37.600;2023-03-19T03:11:59;100762.78;;;-1.60;44.03
70200;BME280;57587;55.688;37.600;2023-03-19T03:14:27;100761.56;;;-1.70;44.44
70200;BME280;57587;55.688;37.600;2023-03-19T03:16:54;100758.16;;;-1.72;44.43
70200;BME280;57587;55.688;37.600;2023-03-19T03:19:23;100761.13;;;-1.80;44.43
70200;BME280;57587;55.688;37.600;2023-03-19T03:21:50;100757.97;;;-1.87;44.51
70200;BME280;57587;55.688;37.600;2023-03-19T03:24:17;100756.19;;;-1.86;44.67
70200;BME280;57587;55.688;37.600;2023-03-19T03:26:44;100767.63;;;-1.87;45.06
70200;BME280;57587;55.688;37.600;2023-03-19T03:29:14;100754.59;;;-1.89;45.10
70200;BME280;57587;55.688;37.600;2023-03-19T03:31:41;100752.13;;;-1.92;45.10
70200;BME280;57587;55.688;37.600;2023-03-19T03:34:08;100753.56;;;-2.03;45.51
70200;BME280;57587;55.688;37.600;2023-03-19T03:36:35;100758.81;;;-2.03;45.41
70200;BME280;57587;55.688;37.600;2023-03-19T03:39:03;100764.19;;;-2.06;45.77
70200;BME280;57587;55.688;37.600;2023-03-19T03:41:30;100754.84;;;-2.12;46.18
70200;BME280;57587;55.688;37.600;2023-03-19T03:43:59;100756.84;;;-2.17;46.30
70200;BME280;57587;55.688;37.600;2023-03-19T03:46:30;100761.94;;;-2.14;46.21
70200;BME280;57587;55.688;37.600;2023-03-19T03:48:57;100756.38;;;-2.08;46.42
70200;BME280;57587;55.688;37.600;2023-03-19T03:51:24;100757.22;;;-2.08;46.39
70200;BME280;57587;55.688;37.600;2023-03-19T03:53:51;100762.47;;;-2.08;46.07
70200;BME280;57587;55.688;37.600;2023-03-19T03:56:18;100758.69;;;-2.19;46.27
70200;BME280;57587;55.688;37.600;2023-03-19T03:58:46;100762.81;;;-2.14;46.49
70200;BME280;57587;55.688;37.600;2023-03-19T04:01:17;100755.69;;;-2.12;46.33
70200;BME280;57587;55.688;37.600;2023-03-19T04:03:49;100756.38;;;-2.08;46.15
70200;BME280;57587;55.688;37.600;2023-03-19T04:06:18;100753.72;;;-2.06;46.24
70200;BME280;57587;55.688;37.600;2023-03-19T04:08:55;100753.97;;;-1.94;45.89
70200;BME280;57587;55.688;37.600;2023-03-19T04:11:22;100746.66;;;-1.70;45.40
70200;BME280;57587;55.688;37.600;2023-03-19T04:13:50;100742.50;;;-0.90;44.02
70200;BME280;57587;55.688;37.600;2023-03-19T04:16:17;100734.72;;;0.04;41.74
70200;BME280;57587;55.688;37.600;2023-03-19T04:18:45;100739.59;;;0.99;39.85
70200;BME280;57587;55.688;37.600;2023-03-19T04:21:12;100739.81;;;1.51;38.11
70200;BME280;57587;55.688;37.600;2023-03-19T04:23:39;100730.09;;;2.20;36.69
70200;BME280;57587;55.688;37.600;2023-03-19T04:26:06;100729.72;;;2.65;35.89
70200;BME280;57587;55.688;37.600;2023-03-19T04:28:34;100726.13;;;3.17;34.75
70200;BME280;57587;55.688;37.600;2023-03-19T04:31:03;100721.13;;;3.62;33.67
70200;BME280;57587;55.688;37.600;2023-03-19T04:33:33;100723.94;;;3.96;33.13
70200;BME280;57587;55.688;37.600;2023-03-19T04:36:00;100717.78;;;4.54;31.80
70200;BME280;57587;55.688;37.600;2023-03-19T04:38:35;100715.19;;;4.88;31.21
70200;BME280;57587;55.688;37.600;2023-03-19T04:41:02;100725.78;;;5.11;30.54
70200;BME280;57587;55.688;37.600;2023-03-19T04:43:33;100718.50;;;5.69;30.21
70200;BME280;57587;55.688;37.600;2023-03-19T04:46:02;100725.75;;;5.67;29.50
70200;BME280;57587;55.688;37.600;2023-03-19T04:48:30;100716.94;;;6.10;29.62
70200;BME280;57587;55.688;37.600;2023-03-19T04:50:58;100715.44;;;6.70;28.83
70200;BME280;57587;55.688;37.600;2023-03-19T04:53:25;100708.53;;;7.69;27.42
70200;BME280;57587;55.688;37.600;2023-03-19T04:55:52;100706.59;;;7.71;27.08
70200;BME280;57587;55.688;37.600;2023-03-19T04:58:19;100717.00;;;8.42;26.09
70200;BME280;57587;55.688;37.600;2023-03-19T05:00:54;100711.94;;;9.43;24.96
70200;BME280;57587;55.688;37.600;2023-03-19T05:03:35;100712.75;;;9.71;24.02
70200;BME280;57587;55.688;37.600;2023-03-19T05:06:06;100700.41;;;10.24;23.51
70200;BME280;57587;55.688;37.600;2023-03-19T05:08:33;100699.56;;;10.85;23.43
70200;BME280;57587;55.688;37.600;2023-03-19T05:11:00;100705.94;;;11.26;22.33
70200;BME280;57587;55.688;37.600;2023-03-19T05:13:37;100708.25;;;11.56;21.88
70200;BME280;57587;55.688;37.600;2023-03-19T05:16:04;100698.13;;;11.84;21.48
70200;BME280;57587;55.688;37.600;2023-03-19T05:18:32;100696.34;;;12.41;20.99
70200;BME280;57587;55.688;37.600;2023-03-19T05:21:01;100700.66;;;12.83;20.34
70200;BME280;57587;55.688;37.600;2023-03-19T05:23:29;100698.38;;;13.20;19.96
70200;BME280;57587;55.688;37.600;2023-03-19T05:26:04;100700.09;;;13.60;19.66
70200;BME280;57587;55.688;37.600;2023-03-19T05:29:04;100696.31;;;14.23;19.09
70200;BME280;57587;55.688;37.600;2023-03-19T05:31:43;100688.44;;;14.37;19.31
70200;BME280;57587;55.688;37.600;2023-03-19T05:34:10;100687.38;;;14.84;18.34
70200;BME280;57587;55.688;37.600;2023-03-19T05:36:38;100683.84;;;14.98;18.31
70200;BME280;57587;55.688;37.600;2023-03-19T05:39:12;100680.41;;;15.85;17.83
70200;BME280;57587;55.688;37.600;2023-03-19T05:41:41;100677.13;;;15.89;17.81
70200;BME280;57587;55.688;37.600;2023-03-19T05:44:10;100665.97;;;15.93;17.60
70200;BME280;57587;55.688;37.600;2023-03-19T05:46:52;100675.06;;;16.34;17.04
70200;BME280;57587;55.688;37.600;2023-03-19T05:49:21;100671.25;;;17.07;17.00
70200;BME280;57587;55.688;37.600;2023-03-19T05:51:48;100677.41;;;17.35;16.29
70200;BME280;57587;55.688;37.600;2023-03-19T05:54:16;100664.50;;;17.37;16.29
70200;BME280;57587;55.688;37.600;2023-03-19T05:56:57;100660.13;;;17.78;15.99
70200;BME280;57587;55.688;37.600;2023-03-19T05:59:42;100653.50;;;18.07;15.79
70200;BME280;57587;55.688;37.600;2023-03-19T06:02:30;100654.97;;;18.03;15.70
70200;BME280;57587;55.688;37.600;2023-03-19T06:05:17;100645.19;;;18.28;15.53
70200;BME280;57587;55.688;37.600;2023-03-19T06:07:45;100647.66;;;18.63;15.23
70200;BME280;57587;55.688;37.600;2023-03-19T06:10:20;100654.97;;;18.16;15.52
70200;BME280;57587;55.688;37.600;2023-03-19T06:12:52;100645.19;;;18.22;15.34
70200;BME280;57587;55.688;37.600;2023-03-19T06:15:37;100643.09;;;18.04;15.79
70200;BME280;57587;55.688;37.600;2023-03-19T06:18:17;100634.75;;;18.45;15.58
70200;BME280;57587;55.688;37.600;2023-03-19T06:20:45;100626.75;;;18.97;14.97
70200;BME280;57587;55.688;37.600;2023-03-19T06:23:15;100628.47;;;19.43;14.71
70200;BME280;57587;55.688;37.600;2023-03-19T06:25:42;100629.88;;;19.52;14.57
70200;BME280;57587;55.688;37.600;2023-03-19T06:28:10;100634.53;;;19.38;14.60
70200;BME280;57587;55.688;37.600;2023-03-19T06:30:41;100616.00;;;19.73;14.62
70200;BME280;57587;55.688;37.600;2023-03-19T06:33:46;100620.81;;;20.53;13.82
70200;BME280;57587;55.688;37.600;2023-03-19T06:36:15;100618.22;;;20.40;13.95
70200;BME280;57587;55.688;37.600;2023-03-19T06:38:43;100612.69;;;20.71;13.90
70200;BME280;57587;55.688;37.600;2023-03-19T06:41:10;100616.03;;;21.47;13.23
70200;BME280;57587;55.688;37.600;2023-03-19T06:43:38;100615.78;;;22.21;12.65
70200;BME280;57587;55.688;37.600;2023-03-19T06:46:08;100614.59;;;22.64;12.19
70200;BME280;57587;55.688;37.600;2023-03-19T06:48:37;100607.50;;;22.63;12.88
70200;BME280;57587;55.688;37.600;2023-03-19T06:51:05;100607.19;;;23.23;12.45
70200;BME280;57587;55.688;37.600;2023-03-19T06:53:33;100601.53;;;23.41;11.67
70200;BME280;57587;55.688;37.600;2023-03-19T06:56:00;100601.19;;;22.86;11.97
70200;BME280;57587;55.688;37.600;2023-03-19T06:58:27;100602.72;;;22.70;12.44
70200;BME280;57587;55.688;37.600;2023-03-19T07:00:55;100597.66;;;22.62;12.56
70200;BME280;57587;55.688;37.600;2023-03-19T07:03:22;100601.63;;;23.46;11.73
70200;BME280;57587;55.688;37.600;2023-03-19T07:05:50;100590.81;;;24.14;11.66
70200;BME280;57587;55.688;37.600;2023-03-19T07:08:17;100592.16;;;25.06;11.29
70200;BME280;57587;55.688;37.600;2023-03-19T07:10:44;100601.00;;;25.84;11.03
70200;BME280;57587;55.688;37.600;2023-03-19T07:13:12;100592.16;;;26.09;10.27
70200;BME280;57587;55.688;37.600;2023-03-19T07:15:39;100590.13;;;26.27;10.12
70200;BME280;57587;55.688;37.600;2023-03-19T07:18:06;100585.38;;;25.85;10.65
70200;BME280;57587;55.688;37.600;2023-03-19T07:20:33;100587.81;;;26.51;10.81
70200;BME280;57587;55.688;37.600;2023-03-19T07:23:00;100581.72;;;26.86;9.87
70200;BME280;57587;55.688;37.600;2023-03-19T07:25:27;100584.66;;;26.32;9.75
70200;BME280;57587;55.688;37.600;2023-03-19T07:27:54;100584.28;;;25.32;10.95
70200;BME280;57587;55.688;37.600;2023-03-19T07:30:22;100575.94;;;25.75;10.80
70200;BME280;57587;55.688;37.600;2023-03-19T07:32:50;100584.53;;;26.16;10.19
70200;BME280;57587;55.688;37.600;2023-03-19T07:35:17;100583.78;;;26.26;10.33
70200;BME280;57587;55.688;37.600;2023-03-19T07:37:44;100583.59;;;26.38;10.16
70200;BME280;57587;55.688;37.600;2023-03-19T07:40:11;100567.63;;;26.72;9.88
70200;BME280;57587;55.688;37.600;2023-03-19T07:42:39;100574.13;;;27.08;9.57
70200;BME280;57587;55.688;37.600;2023-03-19T07:45:06;100576.41;;;26.32;9.92
70200;BME280;57587;55.688;37.600;2023-03-19T07:47:34;100573.34;;;25.59;10.57
70200;BME280;57587;55.688;37.600;2023-03-19T07:50:01;100569.66;;;26.07;10.35
70200;BME280;57587;55.688;37.600;2023-03-19T07:52:28;100575.75;;;26.14;10.05
70200;BME280;57587;55.688;37.600;2023-03-19T07:54:55;100571.09;;;26.15;10.38
70200;BME280;57587;55.688;37.600;2023-03-19T07:57:22;100577.78;;;26.29;9.97
70200;BME280;57587;55.688;37.600;2023-03-19T07:59:51;100576.41;;;25.67;10.26
70200;BME280;57587;55.688;37.600;2023-03-19T08:02:18;100565.19;;;23.41;11.74
70200;BME280;57587;55.688;37.600;2023-03-19T08:04:49;100564.97;;;23.14;12.27
70200;BME280;57587;55.688;37.600;2023-03-19T08:07:16;100559.13;;;24.52;11.68
70200;BME280;57587;55.688;37.600;2023-03-19T08:09:43;100551.59;;;25.03;11.21
70200;BME280;57587;55.688;37.600;2023-03-19T08:12:10;100555.84;;;25.65;10.72
70200;BME280;57587;55.688;37.600;2023-03-19T08:14:37;100561.25;;;26.19;10.50
70200;BME280;57587;55.688;37.600;2023-03-19T08:17:04;100557.09;;;26.16;10.36
70200;BME280;57587;55.688;37.600;2023-03-19T08:19:31;100548.94;;;26.21;10.48
70200;BME280;57587;55.688;37.600;2023-03-19T08:21:59;100545.75;;;26.40;10.40
70200;BME280;57587;55.688;37.600;2023-03-19T08:24:26;100545.59;;;26.57;10.07
70200;BME280;57587;55.688;37.600;2023-03-19T08:26:53;100532.19;;;26.18;10.45
70200;BME280;57587;55.688;37.600;2023-03-19T08:29:20;100536.44;;;26.41;10.01
70200;BME280;57587;55.688;37.600;2023-03-19T08:31:47;100528.47;;;26.39;10.27
70200;BME280;57587;55.688;37.600;2023-03-19T08:34:14;100531.06;;;26.19;10.41
70200;BME280;57587;55.688;37.600;2023-03-19T08:36:42;100518.53;;;26.28;10.52
70200;BME280;57587;55.688;37.600;2023-03-19T08:39:09;100511.59;;;26.15;10.58
70200;BME280;57587;55.688;37.600;2023-03-19T08:41:36;100519.78;;;26.10;10.64
70200;BME280;57587;55.688;37.600;2023-03-19T08:44:03;100514.91;;;26.17;10.76
70200;BME280;57587;55.688;37.600;2023-03-19T08:46:30;100511.94;;;26.29;10.52
70200;BME280;57587;55.688;37.600;2023-03-19T08:48:58;100511.44;;;26.37;10.20
70200;BME280;57587;55.688;37.600;2023-03-19T08:51:26;100498.00;;;26.41;10.38
70200;BME280;57587;55.688;37.600;2023-03-19T08:53:54;100501.41;;;26.53;10.33
70200;BME280;57587;55.688;37.600;2023-03-19T08:56:21;100497.63;;;26.64;10.23
70200;BME280;57587;55.688;37.600;2023-03-19T08:58:48;100491.41;;;26.37;10.47
70200;BME280;57587;55.688;37.600;2023-03-19T09:01:15;100489.06;;;25.44;10.53
70200;BME280;57587;55.688;37.600;2023-03-19T09:03:43;100487.56;;;24.21;11.38
70200;BME280;57587;55.688;37.600;2023-03-19T09:06:11;100483.31;;;23.91;11.72
70200;BME280;57587;55.688;37.600;2023-03-19T09:08:40;100476.13;;;23.85;11.94
70200;BME280;57587;55.688;37.600;2023-03-19T09:11:08;100462.94;;;23.99;12.14
70200;BME280;57587;55.688;37.600;2023-03-19T09:13:36;100463.50;;;23.84;12.26
70200;BME280;57587;55.688;37.600;2023-03-19T09:16:04;100460.78;;;22.76;12.39
70200;BME280;57587;55.688;37.600;2023-03-19T09:18:32;100450.22;;;22.16;12.94
70200;BME280;57587;55.688;37.600;2023-03-19T09:21:00;100454.25;;;22.25;13.02
70200;BME280;57587;55.688;37.600;2023-03-19T09:23:27;100451.03;;;22.40;13.07
70200;BME280;57587;55.688;37.600;2023-03-19T09:25:54;100452.09;;;22.04;13.19
70200;BME280;57587;55.688;37.600;2023-03-19T09:28:21;100441.44;;;21.44;13.55
70200;BME280;57587;55.688;37.600;2023-03-19T09:30:49;100452.22;;;21.74;13.41
70200;BME280;57587;55.688;37.600;2023-03-19T09:33:18;100446.81;;;21.32;13.90
70200;BME280;57587;55.688;37.600;2023-03-19T09:35:50;100450.75;;;21.36;13.74
70200;BME280;57587;55.688;37.600;2023-03-19T09:38:19;100450.84;;;20.99;14.12
70200;BME280;57587;55.688;37.600;2023-03-19T09:40:48;100449.88;;;20.63;14.36
70200;BME280;57587;55.688;37.600;2023-03-19T09:46:17;100452.59;;;19.83;14.85
70200;BME280;57587;55.688;37.600;2023-03-19T09:48:50;100433.84;;;19.25;15.70
70200;BME280;57587;55.688;37.600;2023-03-19T09:51:27;100436.25;;;19.90;15.10
70200;BME280;57587;55.688;37.600;2023-03-19T09:54:02;100440.38;;;19.17;15.72
70200;BME280;57587;55.688;37.600;2023-03-19T09:56:32;100435.00;;;19.04;15.91
70200;BME280;57587;55.688;37.600;2023-03-19T09:59:00;100428.47;;;19.43;15.91
70200;BME280;57587;55.688;37.600;2023-03-19T10:01:34;100421.47;;;19.29;16.03
70200;BME280;57587;55.688;37.600;2023-03-19T10:04:24;100426.00;;;18.20;16.71
70200;BME280;57587;55.688;37.600;2023-03-19T10:07:41;100422.25;;;18.21;17.25
70200;BME280;57587;55.688;37.600;2023-03-19T10:10:46;100417.09;;;17.86;17.48
70200;BME280;57587;55.688;37.600;2023-03-19T10:15:43;100421.56;;;16.25;18.79
70200;BME280;57587;55.688;37.600;2023-03-19T10:18:19;100420.88;;;15.75;19.14
70200;BME280;57587;55.688;37.600;2023-03-19T10:26:19;100409.06;;;15.82;20.18
70200;BME280;57587;55.688;37.600;2023-03-19T10:29:00;100406.72;;;15.23;20.31
70200;BME280;57587;55.688;37.600;2023-03-19T10:39:39;100408.31;;;15.39;20.71
70200;BME280;57587;55.688;37.600;2023-03-19T10:44:55;100394.63;;;14.40;21.72
70200;BME280;57587;55.688;37.600;2023-03-19T10:47:25;100392.63;;;13.68;22.49
70200;BME280;57587;55.688;37.600;2023-03-19T10:49:55;100387.63;;;13.27;23.50
70200;BME280;57587;55.688;37.600;2023-03-19T10:52:34;100388.75;;;13.70;22.57
70200;BME280;57587;55.688;37.600;2023-03-19T10:55:12;100386.03;;;14.15;23.06
70200;BME280;57587;55.688;37.600;2023-03-19T10:57:44;100378.84;;;14.88;22.60
70200;BME280;57587;55.688;37.600;2023-03-19T11:00:21;100368.31;;;14.93;21.63
70200;BME280;57587;55.688;37.600;2023-03-19T11:02:51;100371.38;;;14.68;22.15
70200;BME280;57587;55.688;37.600;2023-03-19T11:05:30;100370.81;;;14.22;22.57
70200;BME280;57587;55.688;37.600;2023-03-19T11:08:04;100367.97;;;13.94;22.99
70200;BME280;57587;55.688;37.600;2023-03-19T11:10:35;100372.56;;;13.55;23.22
70200;BME280;57587;55.688;37.600;2023-03-19T11:13:14;100361.72;;;13.11;23.82
70200;BME280;57587;55.688;37.600;2023-03-19T11:15:46;100360.47;;;12.21;25.00
70200;BME280;57587;55.688;37.600;2023-03-19T11:18:27;100350.47;;;12.38;25.33
70200;BME280;57587;55.688;37.600;2023-03-19T11:21:00;100352.56;;;12.20;25.21
70200;BME280;57587;55.688;37.600;2023-03-19T11:23:38;100351.22;;;11.76;25.76
70200;BME280;57587;55.688;37.600;2023-03-19T11:26:05;100346.88;;;11.75;26.67
70200;BME280;57587;55.688;37.600;2023-03-19T11:28:35;100347.44;;;11.54;26.07
70200;BME280;57587;55.688;37.600;2023-03-19T11:39:58;100347.16;;;9.75;28.78
70200;BME280;57587;55.688;37.600;2023-03-19T11:53:30;100326.03;;;8.04;32.76
70200;BME280;57587;55.688;37.600;2023-03-19T11:59:31;100332.28;;;7.95;33.45
70200;BME280;57587;55.688;37.600;2023-03-19T12:02:31;100317.28;;;7.94;33.25
70200;BME280;57587;55.688;37.600;2023-03-19T12:05:23;100323.28;;;7.68;33.06
70200;BME280;57587;55.688;37.600;2023-03-19T12:13:30;100306.28;;;6.95;34.50
70200;BME280;57587;55.688;37.600;2023-03-19T12:16:23;100305.28;;;6.86;35.00
70200;BME280;57587;55.688;37.600;2023-03-19T12:35:35;100271.94;;;5.94;36.86
70200;BME280;57587;55.688;37.600;2023-03-19T12:38:16;100268.69;;;5.81;37.58
70200;BME280;57587;55.688;37.600;2023-03-19T12:40:54;100265.50;;;5.87;37.44
70200;BME280;57587;55.688;37.600;2023-03-19T12:43:28;100265.41;;;5.98;37.38
70200;BME280;57587;55.688;37.600;2023-03-19T12:46:26;100262.25;;;5.74;37.25
70200;BME280;57587;55.688;37.600;2023-03-19T12:51:34;100247.88;;;5.86;36.99
70200;BME280;57587;55.688;37.600;2023-03-19T12:54:26;100252.31;;;5.76;37.86
70200;BME280;57587;55.688;37.600;2023-03-19T12:57:11;100241.53;;;5.58;38.43
70200;BME280;57587;55.688;37.600;2023-03-19T12:59:53;100241.41;;;5.79;37.85
70200;BME280;57587;55.688;37.600;2023-03-19T13:02:29;100246.72;;;5.69;37.32
70200;BME280;57587;55.688;37.600;2023-03-19T13:07:54;100229.38;;;5.55;37.35
70200;BME280;57587;55.688;37.600;2023-03-19T13:10:25;100225.31;;;5.51;37.84
70200;BME280;57587;55.688;37.600;2023-03-19T13:12:52;100222.78;;;5.50;36.97
70200;BME280;57587;55.688;37.600;2023-03-19T13:15:28;100218.31;;;5.50;37.28
70200;BME280;57587;55.688;37.600;2023-03-19T13:23:31;100218.91;;;5.64;38.55
70200;BME280;57587;55.688;37.600;2023-03-19T13:26:00;100218.47;;;5.59;38.32
70200;BME280;57587;55.688;37.600;2023-03-19T13:28:33;100213.16;;;5.59;38.20
70200;BME280;57587;55.688;37.600;2023-03-19T13:31:22;100208.97;;;5.56;38.20
70200;BME280;57587;55.688;37.600;2023-03-19T13:33:52;100208.13;;;5.55;38.25
70200;BME280;57587;55.688;37.600;2023-03-19T13:36:29;100203.09;;;5.52;38.60
70200;BME280;57587;55.688;37.600;2023-03-19T13:38:58;100199.31;;;5.45;38.75
70200;BME280;57587;55.688;37.600;2023-03-19T13:44:00;100198.31;;;5.46;38.73
70200;BME280;57587;55.688;37.600;2023-03-19T13:46:44;100190.47;;;5.35;39.20
70200;BME280;57587;55.688;37.600;2023-03-19T13:55:54;100190.75;;;5.42;38.54
70200;BME280;57587;55.688;37.600;2023-03-19T13:58:25;100180.56;;;5.37;39.00
70200;BME280;57587;55.688;37.600;2023-03-19T14:03:59;100179.75;;;5.46;38.64
70200;BME280;57587;55.688;37.600;2023-03-19T14:06:38;100182.41;;;5.46;39.12
70200;BME280;57587;55.688;37.600;2023-03-19T14:09:28;100178.22;;;5.53;38.64
70200;BME280;57587;55.688;37.600;2023-03-19T14:15:00;100168.28;;;5.36;39.45
70200;BME280;57587;55.688;37.600;2023-03-19T14:17:50;100176.53;;;5.43;39.35
70200;BME280;57587;55.688;37.600;2023-03-19T14:20:24;100163.38;;;5.41;38.92
70200;BME280;57587;55.688;37.600;2023-03-19T14:34:03;100151.63;;;5.24;38.74
70200;BME280;57587;55.688;37.600;2023-03-19T14:36:35;100153.00;;;5.28;38.09
70200;BME280;57587;55.688;37.600;2023-03-19T14:39:08;100149.09;;;5.32;37.55
70200;BME280;57587;55.688;37.600;2023-03-19T14:41:48;100146.34;;;5.34;37.45
70200;BME280;57587;55.688;37.600;2023-03-19T14:53:42;100153.31;;;5.35;38.14
70200;BME280;57587;55.688;37.600;2023-03-19T14:56:24;100135.53;;;5.26;37.97
70200;BME280;57587;55.688;37.600;2023-03-19T14:58:54;100145.22;;;5.27;38.05
70200;BME280;57587;55.688;37.600;2023-03-19T15:01:25;100142.69;;;5.25;38.08
70200;BME280;57587;55.688;37.600;2023-03-19T15:03:57;100141.13;;;5.23;37.99
70200;BME280;57587;55.688;37.600;2023-03-19T15:06:39;100136.81;;;5.22;37.71